sensor_id;sensor_type;location;lat;lon;timestamp;temperature;humidity
39095;DHT22;24840;47.508;19.376;2022-08-19T00:00:37;21.70;94.30
39095;DHT22;24840;47.508;19.376;2022-08-19T00:03:04;21.70;94.60
39095;DHT22;24840;47.508;19.376;2022-08-19T00:05:30;21.70;94.60
39095;DHT22;24840;47.508;19.376;2022-08-19T00:07:57;21.70;94.80
39095;DHT22;24840;47.508;19.376;2022-08-19T00:10:23;21.60;95.20
39095;DHT22;24840;47.508;19.376;2022-08-19T00:12:50;21.60;95.20
39095;DHT22;24840;47.508;19.376;2022-08-19T00:15:18;21.50;95.60
39095;DHT22;24840;47.508;19.376;2022-08-19T00:17:45;21.50;95.60
39095;DHT22;24840;47.508;19.376;2022-08-19T00:20:14;21.40;96.00
39095;DHT22;24840;47.508;19.376;2022-08-19T00:22:43;21.50;95.80
39095;DHT22;24840;47.508;19.376;2022-08-19T00:25:09;21.40;96.10
39095;DHT22;24840;47.508;19.376;2022-08-19T00:27:35;21.30;96.50
39095;DHT22;24840;47.508;19.376;2022-08-19T00:30:03;21.40;96.50
39095;DHT22;24840;47.508;19.376;2022-08-19T00:32:29;21.40;96.40
39095;DHT22;24840;47.508;19.376;2022-08-19T00:34:55;21.40;96.40
39095;DHT22;24840;47.508;19.376;2022-08-19T00:37:23;21.30;97.10
39095;DHT22;24840;47.508;19.376;2022-08-19T00:39:51;21.30;96.80
39095;DHT22;24840;47.508;19.376;2022-08-19T00:42:18;21.30;96.90
39095;DHT22;24840;47.508;19.376;2022-08-19T00:44:44;21.30;97.30
39095;DHT22;24840;47.508;19.376;2022-08-19T00:47:13;21.20;97.60
39095;DHT22;24840;47.508;19.376;2022-08-19T00:49:48;21.30;97.30
39095;DHT22;24840;47.508;19.376;2022-08-19T00:52:33;21.40;97.00
39095;DHT22;24840;47.508;19.376;2022-08-19T00:55:01;21.30;97.40
39095;DHT22;24840;47.508;19.376;2022-08-19T00:57:36;21.30;97.40
39095;DHT22;24840;47.508;19.376;2022-08-19T01:00:09;21.20;97.40
39095;DHT22;24840;47.508;19.376;2022-08-19T01:02:38;21.30;97.40
39095;DHT22;24840;47.508;19.376;2022-08-19T01:05:08;21.30;97.20
39095;DHT22;24840;47.508;19.376;2022-08-19T01:07:35;21.20;97.60
39095;DHT22;24840;47.508;19.376;2022-08-19T01:10:03;21.10;97.80
39095;DHT22;24840;47.508;19.376;2022-08-19T01:12:30;21.00;98.60
39095;DHT22;24840;47.508;19.376;2022-08-19T01:14:56;20.90;98.70
39095;DHT22;24840;47.508;19.376;2022-08-19T01:17:22;21.00;98.50
39095;DHT22;24840;47.508;19.376;2022-08-19T01:19:49;21.00;98.90
39095;DHT22;24840;47.508;19.376;2022-08-19T01:24:53;21.00;98.50
39095;DHT22;24840;47.508;19.376;2022-08-19T01:27:19;20.80;99.20
39095;DHT22;24840;47.508;19.376;2022-08-19T01:29:45;20.70;99.70
39095;DHT22;24840;47.508;19.376;2022-08-19T01:32:15;20.60;99.90
39095;DHT22;24840;47.508;19.376;2022-08-19T01:34:42;20.60;99.90
39095;DHT22;24840;47.508;19.376;2022-08-19T01:37:13;20.60;99.90
39095;DHT22;24840;47.508;19.376;2022-08-19T01:39:40;20.60;99.90
39095;DHT22;24840;47.508;19.376;2022-08-19T01:42:08;20.60;99.90
39095;DHT22;24840;47.508;19.376;2022-08-19T01:44:38;20.60;99.90
39095;DHT22;24840;47.508;19.376;2022-08-19T01:47:05;20.70;99.50
39095;DHT22;24840;47.508;19.376;2022-08-19T01:49:32;20.70;99.50
39095;DHT22;24840;47.508;19.376;2022-08-19T01:51:59;20.70;99.80
39095;DHT22;24840;47.508;19.376;2022-08-19T01:54:26;20.60;99.80
39095;DHT22;24840;47.508;19.376;2022-08-19T01:56:59;20.50;99.90
39095;DHT22;24840;47.508;19.376;2022-08-19T01:59:26;20.50;99.90
39095;DHT22;24840;47.508;19.376;2022-08-19T02:01:53;20.40;99.90
39095;DHT22;24840;47.508;19.376;2022-08-19T02:04:18;20.30;99.90
39095;DHT22;24840;47.508;19.376;2022-08-19T02:06:44;20.30;99.90
39095;DHT22;24840;47.508;19.376;2022-08-19T02:09:10;20.20;99.90
39095;DHT22;24840;47.508;19.376;2022-08-19T02:11:37;20.20;99.90
39095;DHT22;24840;47.508;19.376;2022-08-19T02:14:07;20.20;99.90
39095;DHT22;24840;47.508;19.376;2022-08-19T02:16:34;20.10;99.90
39095;DHT22;24840;47.508;19.376;2022-08-19T02:19:02;20.10;99.90
39095;DHT22;24840;47.508;19.376;2022-08-19T02:21:29;20.00;99.90
39095;DHT22;24840;47.508;19.376;2022-08-19T02:23:55;20.10;99.90
39095;DHT22;24840;47.508;19.376;2022-08-19T02:26:22;20.10;99.90
39095;DHT22;24840;47.508;19.376;2022-08-19T02:28:48;20.10;99.90
39095;DHT22;24840;47.508;19.376;2022-08-19T02:31:19;20.00;99.90
39095;DHT22;24840;47.508;19.376;2022-08-19T02:33:47;20.00;99.90
39095;DHT22;24840;47.508;19.376;2022-08-19T02:36:16;19.90;99.90
39095;DHT22;24840;47.508;19.376;2022-08-19T02:38:43;19.90;99.90
39095;DHT22;24840;47.508;19.376;2022-08-19T02:41:18;19.80;99.90
39095;DHT22;24840;47.508;19.376;2022-08-19T02:43:44;19.80;99.90
39095;DHT22;24840;47.508;19.376;2022-08-19T02:46:17;19.70;99.90
39095;DHT22;24840;47.508;19.376;2022-08-19T02:48:53;19.60;99.90
39095;DHT22;24840;47.508;19.376;2022-08-19T02:51:26;19.60;99.90
39095;DHT22;24840;47.508;19.376;2022-08-19T02:53:53;19.70;99.90
39095;DHT22;24840;47.508;19.376;2022-08-19T02:56:21;19.70;99.90
39095;DHT22;24840;47.508;19.376;2022-08-19T02:58:47;19.70;99.90
39095;DHT22;24840;47.508;19.376;2022-08-19T03:01:26;19.60;99.90
39095;DHT22;24840;47.508;19.376;2022-08-19T03:03:53;19.60;99.90
39095;DHT22;24840;47.508;19.376;2022-08-19T03:06:19;19.70;99.90
39095;DHT22;24840;47.508;19.376;2022-08-19T03:08:47;19.70;99.90
39095;DHT22;24840;47.508;19.376;2022-08-19T03:11:17;19.70;99.90
39095;DHT22;24840;47.508;19.376;2022-08-19T03:13:44;19.60;99.90
39095;DHT22;24840;47.508;19.376;2022-08-19T03:16:11;19.60;99.90
39095;DHT22;24840;47.508;19.376;2022-08-19T03:18:37;19.50;99.90
39095;DHT22;24840;47.508;19.376;2022-08-19T03:21:04;19.50;99.90
39095;DHT22;24840;47.508;19.376;2022-08-19T03:23:31;19.50;99.90
39095;DHT22;24840;47.508;19.376;2022-08-19T03:25:57;19.60;99.90
39095;DHT22;24840;47.508;19.376;2022-08-19T03:28:23;19.50;99.90
39095;DHT22;24840;47.508;19.376;2022-08-19T03:30:58;19.50;99.90
39095;DHT22;24840;47.508;19.376;2022-08-19T03:33:25;19.40;99.90
39095;DHT22;24840;47.508;19.376;2022-08-19T03:36:12;19.50;99.90
39095;DHT22;24840;47.508;19.376;2022-08-19T03:38:45;19.40;99.90
39095;DHT22;24840;47.508;19.376;2022-08-19T03:41:15;19.40;99.90
39095;DHT22;24840;47.508;19.376;2022-08-19T03:43:42;19.40;99.90
39095;DHT22;24840;47.508;19.376;2022-08-19T03:46:12;19.50;99.90
39095;DHT22;24840;47.508;19.376;2022-08-19T03:48:39;19.50;99.90
39095;DHT22;24840;47.508;19.376;2022-08-19T03:51:06;19.50;99.90
39095;DHT22;24840;47.508;19.376;2022-08-19T03:53:33;19.50;99.90
39095;DHT22;24840;47.508;19.376;2022-08-19T03:55:59;19.50;99.90
39095;DHT22;24840;47.508;19.376;2022-08-19T03:58:27;19.50;99.90
39095;DHT22;24840;47.508;19.376;2022-08-19T04:00:55;19.50;99.90
39095;DHT22;24840;47.508;19.376;2022-08-19T04:03:23;19.50;99.90
39095;DHT22;24840;47.508;19.376;2022-08-19T04:05:50;19.40;99.90
39095;DHT22;24840;47.508;19.376;2022-08-19T04:08:16;19.50;99.90
39095;DHT22;24840;47.508;19.376;2022-08-19T04:10:46;19.50;99.90
39095;DHT22;24840;47.508;19.376;2022-08-19T04:13:17;19.40;99.90
39095;DHT22;24840;47.508;19.376;2022-08-19T04:15:44;19.40;99.90
39095;DHT22;24840;47.508;19.376;2022-08-19T04:18:13;19.40;99.90
39095;DHT22;24840;47.508;19.376;2022-08-19T04:20:41;19.50;99.90
39095;DHT22;24840;47.508;19.376;2022-08-19T04:23:07;19.50;99.90
39095;DHT22;24840;47.508;19.376;2022-08-19T04:25:38;19.50;99.90
39095;DHT22;24840;47.508;19.376;2022-08-19T04:28:04;19.60;99.90
39095;DHT22;24840;47.508;19.376;2022-08-19T04:30:30;19.70;99.90
39095;DHT22;24840;47.508;19.376;2022-08-19T04:32:56;19.60;99.90
39095;DHT22;24840;47.508;19.376;2022-08-19T04:35:22;19.70;99.90
39095;DHT22;24840;47.508;19.376;2022-08-19T04:37:48;19.80;99.90
39095;DHT22;24840;47.508;19.376;2022-08-19T04:40:14;19.90;99.90
39095;DHT22;24840;47.508;19.376;2022-08-19T04:42:58;20.00;99.90
39095;DHT22;24840;47.508;19.376;2022-08-19T04:45:24;20.00;99.90
39095;DHT22;24840;47.508;19.376;2022-08-19T04:47:55;20.20;99.90
39095;DHT22;24840;47.508;19.376;2022-08-19T04:50:27;20.20;99.90
39095;DHT22;24840;47.508;19.376;2022-08-19T04:52:54;20.30;99.90
39095;DHT22;24840;47.508;19.376;2022-08-19T04:55:21;20.40;99.90
39095;DHT22;24840;47.508;19.376;2022-08-19T04:57:47;20.50;99.90
39095;DHT22;24840;47.508;19.376;2022-08-19T05:00:13;20.70;99.90
39095;DHT22;24840;47.508;19.376;2022-08-19T05:02:40;21.00;99.90
39095;DHT22;24840;47.508;19.376;2022-08-19T05:05:06;21.30;99.90
39095;DHT22;24840;47.508;19.376;2022-08-19T05:07:32;21.50;99.90
39095;DHT22;24840;47.508;19.376;2022-08-19T05:09:58;21.70;99.90
39095;DHT22;24840;47.508;19.376;2022-08-19T05:12:25;21.90;99.90
39095;DHT22;24840;47.508;19.376;2022-08-19T05:14:51;22.20;98.50
39095;DHT22;24840;47.508;19.376;2022-08-19T05:17:17;22.40;98.00
39095;DHT22;24840;47.508;19.376;2022-08-19T05:19:43;22.50;97.80
39095;DHT22;24840;47.508;19.376;2022-08-19T05:22:27;22.50;97.90
39095;DHT22;24840;47.508;19.376;2022-08-19T05:25:07;22.70;96.90
39095;DHT22;24840;47.508;19.376;2022-08-19T05:27:34;22.90;96.60
39095;DHT22;24840;47.508;19.376;2022-08-19T05:30:00;23.20;95.20
39095;DHT22;24840;47.508;19.376;2022-08-19T05:32:28;23.30;95.10
39095;DHT22;24840;47.508;19.376;2022-08-19T05:34:54;23.50;95.50
39095;DHT22;24840;47.508;19.376;2022-08-19T05:37:20;23.50;94.60
39095;DHT22;24840;47.508;19.376;2022-08-19T05:39:47;23.60;94.70
39095;DHT22;24840;47.508;19.376;2022-08-19T05:42:14;23.70;94.10
39095;DHT22;24840;47.508;19.376;2022-08-19T05:44:43;23.80;94.60
39095;DHT22;24840;47.508;19.376;2022-08-19T05:47:13;24.00;94.20
39095;DHT22;24840;47.508;19.376;2022-08-19T05:49:40;24.10;93.90
39095;DHT22;24840;47.508;19.376;2022-08-19T05:52:09;24.20;94.10
39095;DHT22;24840;47.508;19.376;2022-08-19T05:54:38;24.30;93.00
39095;DHT22;24840;47.508;19.376;2022-08-19T05:57:07;24.40;93.20
39095;DHT22;24840;47.508;19.376;2022-08-19T05:59:34;24.70;91.90
39095;DHT22;24840;47.508;19.376;2022-08-19T06:02:01;24.80;92.60
39095;DHT22;24840;47.508;19.376;2022-08-19T06:04:28;24.90;91.90
39095;DHT22;24840;47.508;19.376;2022-08-19T06:06:54;25.10;92.60
39095;DHT22;24840;47.508;19.376;2022-08-19T06:09:23;25.20;91.30
39095;DHT22;24840;47.508;19.376;2022-08-19T06:11:51;25.40;90.80
39095;DHT22;24840;47.508;19.376;2022-08-19T06:14:24;25.60;88.20
39095;DHT22;24840;47.508;19.376;2022-08-19T06:16:50;25.80;89.90
39095;DHT22;24840;47.508;19.376;2022-08-19T06:19:19;25.90;87.80
39095;DHT22;24840;47.508;19.376;2022-08-19T06:21:48;26.10;85.60
39095;DHT22;24840;47.508;19.376;2022-08-19T06:24:18;26.30;86.10
39095;DHT22;24840;47.508;19.376;2022-08-19T06:26:46;26.50;85.70
39095;DHT22;24840;47.508;19.376;2022-08-19T06:29:14;26.70;84.70
39095;DHT22;24840;47.508;19.376;2022-08-19T06:31:46;26.80;82.50
39095;DHT22;24840;47.508;19.376;2022-08-19T06:34:15;26.90;82.40
39095;DHT22;24840;47.508;19.376;2022-08-19T06:36:44;27.00;82.40
39095;DHT22;24840;47.508;19.376;2022-08-19T06:39:20;27.00;81.40
39095;DHT22;24840;47.508;19.376;2022-08-19T06:41:49;27.20;81.20
39095;DHT22;24840;47.508;19.376;2022-08-19T06:44:16;27.30;80.30
39095;DHT22;24840;47.508;19.376;2022-08-19T06:46:42;27.50;81.00
39095;DHT22;24840;47.508;19.376;2022-08-19T06:49:08;27.70;78.90
39095;DHT22;24840;47.508;19.376;2022-08-19T06:51:37;27.90;80.30
39095;DHT22;24840;47.508;19.376;2022-08-19T06:54:03;28.20;78.30
39095;DHT22;24840;47.508;19.376;2022-08-19T06:56:30;28.30;76.70
39095;DHT22;24840;47.508;19.376;2022-08-19T06:59:01;28.30;75.70
39095;DHT22;24840;47.508;19.376;2022-08-19T07:01:27;28.50;75.80
39095;DHT22;24840;47.508;19.376;2022-08-19T07:03:53;28.50;74.80
39095;DHT22;24840;47.508;19.376;2022-08-19T07:06:19;28.50;75.00
39095;DHT22;24840;47.508;19.376;2022-08-19T07:08:47;29.00;75.20
39095;DHT22;24840;47.508;19.376;2022-08-19T07:11:16;29.20;72.30
39095;DHT22;24840;47.508;19.376;2022-08-19T07:13:44;29.60;72.50
39095;DHT22;24840;47.508;19.376;2022-08-19T07:16:13;29.70;71.00
39095;DHT22;24840;47.508;19.376;2022-08-19T07:18:40;29.70;70.00
39095;DHT22;24840;47.508;19.376;2022-08-19T07:21:18;29.80;70.80
39095;DHT22;24840;47.508;19.376;2022-08-19T07:23:45;29.90;69.00
39095;DHT22;24840;47.508;19.376;2022-08-19T07:26:29;30.10;68.40
39095;DHT22;24840;47.508;19.376;2022-08-19T07:28:56;30.20;68.00
39095;DHT22;24840;47.508;19.376;2022-08-19T07:31:24;30.50;68.30
39095;DHT22;24840;47.508;19.376;2022-08-19T07:33:52;30.70;67.60
39095;DHT22;24840;47.508;19.376;2022-08-19T07:36:24;30.90;66.80
39095;DHT22;24840;47.508;19.376;2022-08-19T07:38:51;31.00;65.90
39095;DHT22;24840;47.508;19.376;2022-08-19T07:41:22;31.60;66.90
39095;DHT22;24840;47.508;19.376;2022-08-19T07:43:49;31.60;64.80
39095;DHT22;24840;47.508;19.376;2022-08-19T07:46:16;31.90;64.70
39095;DHT22;24840;47.508;19.376;2022-08-19T07:48:43;31.60;63.40
39095;DHT22;24840;47.508;19.376;2022-08-19T07:51:14;31.60;63.60
39095;DHT22;24840;47.508;19.376;2022-08-19T07:53:41;32.00;62.60
39095;DHT22;24840;47.508;19.376;2022-08-19T07:56:07;32.40;62.60
39095;DHT22;24840;47.508;19.376;2022-08-19T07:58:38;32.90;60.60
39095;DHT22;24840;47.508;19.376;2022-08-19T08:01:06;33.00;60.40
39095;DHT22;24840;47.508;19.376;2022-08-19T08:03:32;32.90;61.40
39095;DHT22;24840;47.508;19.376;2022-08-19T08:06:17;32.90;59.20
39095;DHT22;24840;47.508;19.376;2022-08-19T08:09:04;33.20;59.60
39095;DHT22;24840;47.508;19.376;2022-08-19T08:11:56;33.20;59.20
39095;DHT22;24840;47.508;19.376;2022-08-19T08:14:29;32.90;60.60
39095;DHT22;24840;47.508;19.376;2022-08-19T08:16:56;33.00;58.60
39095;DHT22;24840;47.508;19.376;2022-08-19T08:19:24;33.50;59.10
39095;DHT22;24840;47.508;19.376;2022-08-19T08:21:51;33.80;58.50
39095;DHT22;24840;47.508;19.376;2022-08-19T08:24:18;33.70;57.20
39095;DHT22;24840;47.508;19.376;2022-08-19T08:26:44;33.80;56.80
39095;DHT22;24840;47.508;19.376;2022-08-19T08:29:11;33.80;57.90
39095;DHT22;24840;47.508;19.376;2022-08-19T08:31:42;34.10;56.10
39095;DHT22;24840;47.508;19.376;2022-08-19T08:34:09;34.40;55.80
39095;DHT22;24840;47.508;19.376;2022-08-19T08:36:40;34.00;56.00
39095;DHT22;24840;47.508;19.376;2022-08-19T08:39:12;34.60;55.40
39095;DHT22;24840;47.508;19.376;2022-08-19T08:44:23;34.90;52.80
39095;DHT22;24840;47.508;19.376;2022-08-19T08:47:00;34.90;52.20
39095;DHT22;24840;47.508;19.376;2022-08-19T08:50:19;35.10;52.20
39095;DHT22;24840;47.508;19.376;2022-08-19T08:52:51;35.50;52.40
39095;DHT22;24840;47.508;19.376;2022-08-19T08:55:21;36.20;52.10
39095;DHT22;24840;47.508;19.376;2022-08-19T09:00:36;36.30;50.10
39095;DHT22;24840;47.508;19.376;2022-08-19T09:03:04;36.30;50.20
39095;DHT22;24840;47.508;19.376;2022-08-19T09:05:51;36.20;50.00
39095;DHT22;24840;47.508;19.376;2022-08-19T09:11:44;36.80;50.00
39095;DHT22;24840;47.508;19.376;2022-08-19T09:14:32;36.50;50.40
39095;DHT22;24840;47.508;19.376;2022-08-19T09:16:59;36.80;48.80
39095;DHT22;24840;47.508;19.376;2022-08-19T09:19:28;37.30;47.90
39095;DHT22;24840;47.508;19.376;2022-08-19T09:21:54;37.10;46.90
39095;DHT22;24840;47.508;19.376;2022-08-19T09:24:20;37.30;47.50
39095;DHT22;24840;47.508;19.376;2022-08-19T09:26:46;36.90;47.40
39095;DHT22;24840;47.508;19.376;2022-08-19T09:29:15;36.60;48.30
39095;DHT22;24840;47.508;19.376;2022-08-19T09:31:41;37.50;48.10
39095;DHT22;24840;47.508;19.376;2022-08-19T09:34:07;38.10;46.90
39095;DHT22;24840;47.508;19.376;2022-08-19T09:36:34;37.80;45.90
39095;DHT22;24840;47.508;19.376;2022-08-19T09:39:04;38.10;46.40
39095;DHT22;24840;47.508;19.376;2022-08-19T09:41:30;38.50;46.00
39095;DHT22;24840;47.508;19.376;2022-08-19T09:43:58;38.30;45.40
39095;DHT22;24840;47.508;19.376;2022-08-19T09:46:26;38.40;45.50
39095;DHT22;24840;47.508;19.376;2022-08-19T09:48:53;38.10;45.20
39095;DHT22;24840;47.508;19.376;2022-08-19T09:51:24;38.30;45.90
39095;DHT22;24840;47.508;19.376;2022-08-19T09:53:52;39.20;45.10
39095;DHT22;24840;47.508;19.376;2022-08-19T09:56:22;38.50;45.30
39095;DHT22;24840;47.508;19.376;2022-08-19T09:58:48;39.00;44.50
39095;DHT22;24840;47.508;19.376;2022-08-19T10:01:23;38.60;45.90
39095;DHT22;24840;47.508;19.376;2022-08-19T10:03:52;39.40;43.50
39095;DHT22;24840;47.508;19.376;2022-08-19T10:06:20;39.50;43.80
39095;DHT22;24840;47.508;19.376;2022-08-19T10:08:47;39.10;43.80
39095;DHT22;24840;47.508;19.376;2022-08-19T10:11:13;39.20;45.00
39095;DHT22;24840;47.508;19.376;2022-08-19T10:13:43;39.60;43.30
39095;DHT22;24840;47.508;19.376;2022-08-19T10:16:13;40.00;44.00
39095;DHT22;24840;47.508;19.376;2022-08-19T10:18:40;39.50;43.60
39095;DHT22;24840;47.508;19.376;2022-08-19T10:21:17;39.10;44.00
39095;DHT22;24840;47.508;19.376;2022-08-19T10:23:46;38.10;45.00
39095;DHT22;24840;47.508;19.376;2022-08-19T10:26:21;38.80;45.50
39095;DHT22;24840;47.508;19.376;2022-08-19T10:28:48;39.40;44.50
39095;DHT22;24840;47.508;19.376;2022-08-19T10:31:18;39.00;43.30
39095;DHT22;24840;47.508;19.376;2022-08-19T10:33:46;39.50;43.90
39095;DHT22;24840;47.508;19.376;2022-08-19T10:36:19;39.50;42.70
39095;DHT22;24840;47.508;19.376;2022-08-19T10:38:48;40.10;42.60
39095;DHT22;24840;47.508;19.376;2022-08-19T10:41:20;39.50;42.20
39095;DHT22;24840;47.508;19.376;2022-08-19T10:43:49;39.70;42.90
39095;DHT22;24840;47.508;19.376;2022-08-19T10:46:16;39.50;42.90
39095;DHT22;24840;47.508;19.376;2022-08-19T10:48:43;39.70;42.30
39095;DHT22;24840;47.508;19.376;2022-08-19T10:51:10;40.20;42.90
39095;DHT22;24840;47.508;19.376;2022-08-19T10:53:54;41.20;43.10
39095;DHT22;24840;47.508;19.376;2022-08-19T10:56:21;40.50;41.10
39095;DHT22;24840;47.508;19.376;2022-08-19T10:59:07;40.20;41.70
39095;DHT22;24840;47.508;19.376;2022-08-19T11:01:34;39.60;42.30
39095;DHT22;24840;47.508;19.376;2022-08-19T11:04:04;40.20;41.40
39095;DHT22;24840;47.508;19.376;2022-08-19T11:06:34;40.10;40.90
39095;DHT22;24840;47.508;19.376;2022-08-19T11:09:00;41.00;40.50
39095;DHT22;24840;47.508;19.376;2022-08-19T11:11:26;41.50;41.00
39095;DHT22;24840;47.508;19.376;2022-08-19T11:13:52;40.90;40.50
39095;DHT22;24840;47.508;19.376;2022-08-19T11:16:26;41.00;40.80
39095;DHT22;24840;47.508;19.376;2022-08-19T11:18:57;40.40;40.90
39095;DHT22;24840;47.508;19.376;2022-08-19T11:21:29;40.90;40.40
39095;DHT22;24840;47.508;19.376;2022-08-19T11:24:04;41.50;40.30
39095;DHT22;24840;47.508;19.376;2022-08-19T11:26:32;41.00;39.60
39095;DHT22;24840;47.508;19.376;2022-08-19T11:28:59;40.80;40.30
39095;DHT22;24840;47.508;19.376;2022-08-19T11:31:32;41.00;40.50
39095;DHT22;24840;47.508;19.376;2022-08-19T11:34:00;41.60;39.70
39095;DHT22;24840;47.508;19.376;2022-08-19T11:36:27;42.20;39.50
39095;DHT22;24840;47.508;19.376;2022-08-19T11:38:54;42.10;40.00
39095;DHT22;24840;47.508;19.376;2022-08-19T11:41:22;41.10;39.90
39095;DHT22;24840;47.508;19.376;2022-08-19T11:43:50;41.00;40.00
39095;DHT22;24840;47.508;19.376;2022-08-19T11:46:16;41.40;40.20
39095;DHT22;24840;47.508;19.376;2022-08-19T11:48:43;42.60;39.90
39095;DHT22;24840;47.508;19.376;2022-08-19T11:51:15;42.80;39.50
39095;DHT22;24840;47.508;19.376;2022-08-19T11:53:42;42.60;39.20
39095;DHT22;24840;47.508;19.376;2022-08-19T11:56:09;42.10;39.10
39095;DHT22;24840;47.508;19.376;2022-08-19T11:58:36;41.60;38.80
39095;DHT22;24840;47.508;19.376;2022-08-19T12:01:06;42.20;38.70
39095;DHT22;24840;47.508;19.376;2022-08-19T12:03:33;41.70;38.80
39095;DHT22;24840;47.508;19.376;2022-08-19T12:06:10;42.70;38.60
39095;DHT22;24840;47.508;19.376;2022-08-19T12:08:38;42.20;38.10
39095;DHT22;24840;47.508;19.376;2022-08-19T12:11:04;41.40;38.90
39095;DHT22;24840;47.508;19.376;2022-08-19T12:13:34;41.30;39.20
39095;DHT22;24840;47.508;19.376;2022-08-19T12:16:00;42.20;38.80
39095;DHT22;24840;47.508;19.376;2022-08-19T12:18:27;42.70;39.10
39095;DHT22;24840;47.508;19.376;2022-08-19T12:20:53;43.10;38.50
39095;DHT22;24840;47.508;19.376;2022-08-19T12:23:22;42.40;38.10
39095;DHT22;24840;47.508;19.376;2022-08-19T12:25:49;41.30;38.20
39095;DHT22;24840;47.508;19.376;2022-08-19T12:28:22;41.70;39.10
39095;DHT22;24840;47.508;19.376;2022-08-19T12:30:50;40.50;38.00
39095;DHT22;24840;47.508;19.376;2022-08-19T12:33:17;40.50;38.60
39095;DHT22;24840;47.508;19.376;2022-08-19T12:35:46;41.90;38.50
39095;DHT22;24840;47.508;19.376;2022-08-19T12:38:13;42.50;38.00
39095;DHT22;24840;47.508;19.376;2022-08-19T12:40:40;43.10;37.80
39095;DHT22;24840;47.508;19.376;2022-08-19T12:43:07;42.80;37.50
39095;DHT22;24840;47.508;19.376;2022-08-19T12:45:34;42.10;37.70
39095;DHT22;24840;47.508;19.376;2022-08-19T12:48:00;40.90;38.80
39095;DHT22;24840;47.508;19.376;2022-08-19T12:50:26;41.10;39.60
39095;DHT22;24840;47.508;19.376;2022-08-19T12:52:52;41.20;38.00
39095;DHT22;24840;47.508;19.376;2022-08-19T12:55:18;42.00;37.60
39095;DHT22;24840;47.508;19.376;2022-08-19T12:57:45;42.10;38.00
39095;DHT22;24840;47.508;19.376;2022-08-19T13:00:14;42.20;38.40
39095;DHT22;24840;47.508;19.376;2022-08-19T13:02:44;41.80;38.10
39095;DHT22;24840;47.508;19.376;2022-08-19T13:05:13;40.80;39.00
39095;DHT22;24840;47.508;19.376;2022-08-19T13:07:40;41.50;39.20
39095;DHT22;24840;47.508;19.376;2022-08-19T13:10:08;42.00;38.20
39095;DHT22;24840;47.508;19.376;2022-08-19T13:12:35;41.10;38.70
39095;DHT22;24840;47.508;19.376;2022-08-19T13:15:01;40.10;39.50
39095;DHT22;24840;47.508;19.376;2022-08-19T13:17:27;40.90;39.10
39095;DHT22;24840;47.508;19.376;2022-08-19T13:19:53;40.80;39.20
39095;DHT22;24840;47.508;19.376;2022-08-19T13:22:19;41.50;38.30
39095;DHT22;24840;47.508;19.376;2022-08-19T13:24:45;41.40;39.00
39095;DHT22;24840;47.508;19.376;2022-08-19T13:27:11;41.60;37.90
39095;DHT22;24840;47.508;19.376;2022-08-19T13:29:40;42.10;38.50
39095;DHT22;24840;47.508;19.376;2022-08-19T13:32:24;41.90;38.30
39095;DHT22;24840;47.508;19.376;2022-08-19T13:35:08;40.30;39.30
39095;DHT22;24840;47.508;19.376;2022-08-19T13:37:34;39.90;40.00
39095;DHT22;24840;47.508;19.376;2022-08-19T13:40:09;39.50;39.90
39095;DHT22;24840;47.508;19.376;2022-08-19T13:42:41;39.30;40.60
39095;DHT22;24840;47.508;19.376;2022-08-19T13:45:08;39.90;38.80
39095;DHT22;24840;47.508;19.376;2022-08-19T13:47:35;40.60;38.70
39095;DHT22;24840;47.508;19.376;2022-08-19T13:50:05;40.00;38.90
39095;DHT22;24840;47.508;19.376;2022-08-19T13:52:31;39.70;39.70
39095;DHT22;24840;47.508;19.376;2022-08-19T13:54:57;39.60;39.10
39095;DHT22;24840;47.508;19.376;2022-08-19T13:57:23;39.90;39.70
39095;DHT22;24840;47.508;19.376;2022-08-19T13:59:49;39.90;38.90
39095;DHT22;24840;47.508;19.376;2022-08-19T14:02:15;39.50;40.20
39095;DHT22;24840;47.508;19.376;2022-08-19T14:04:41;39.20;40.40
39095;DHT22;24840;47.508;19.376;2022-08-19T14:07:07;39.00;40.00
39095;DHT22;24840;47.508;19.376;2022-08-19T14:09:33;39.60;39.10
39095;DHT22;24840;47.508;19.376;2022-08-19T14:11:59;39.70;39.40
39095;DHT22;24840;47.508;19.376;2022-08-19T14:14:25;39.50;38.80
39095;DHT22;24840;47.508;19.376;2022-08-19T14:16:51;38.60;40.40
39095;DHT22;24840;47.508;19.376;2022-08-19T14:19:18;38.60;40.20
39095;DHT22;24840;47.508;19.376;2022-08-19T14:21:44;38.50;41.30
39095;DHT22;24840;47.508;19.376;2022-08-19T14:24:10;38.00;40.70
39095;DHT22;24840;47.508;19.376;2022-08-19T14:26:36;38.30;43.00
39095;DHT22;24840;47.508;19.376;2022-08-19T14:29:02;38.90;40.80
39095;DHT22;24840;47.508;19.376;2022-08-19T14:31:28;39.40;40.70
39095;DHT22;24840;47.508;19.376;2022-08-19T14:33:54;38.90;39.60
39095;DHT22;24840;47.508;19.376;2022-08-19T14:36:20;39.10;40.10
39095;DHT22;24840;47.508;19.376;2022-08-19T14:38:48;39.70;39.60
39095;DHT22;24840;47.508;19.376;2022-08-19T14:41:17;39.30;39.60
39095;DHT22;24840;47.508;19.376;2022-08-19T14:43:46;38.60;39.90
39095;DHT22;24840;47.508;19.376;2022-08-19T14:46:18;38.40;40.60
39095;DHT22;24840;47.508;19.376;2022-08-19T14:48:48;38.20;40.70
39095;DHT22;24840;47.508;19.376;2022-08-19T14:51:15;37.80;41.00
39095;DHT22;24840;47.508;19.376;2022-08-19T14:53:41;37.80;40.80
39095;DHT22;24840;47.508;19.376;2022-08-19T14:56:13;37.80;41.80
39095;DHT22;24840;47.508;19.376;2022-08-19T14:58:40;38.00;43.60
39095;DHT22;24840;47.508;19.376;2022-08-19T15:01:07;37.70;44.50
39095;DHT22;24840;47.508;19.376;2022-08-19T15:03:34;36.90;46.20
39095;DHT22;24840;47.508;19.376;2022-08-19T15:06:02;35.60;48.50
39095;DHT22;24840;47.508;19.376;2022-08-19T15:08:30;35.00;50.10
39095;DHT22;24840;47.508;19.376;2022-08-19T15:10:58;34.90;50.50
39095;DHT22;24840;47.508;19.376;2022-08-19T15:13:25;34.90;51.30
39095;DHT22;24840;47.508;19.376;2022-08-19T15:15:52;34.50;51.60
39095;DHT22;24840;47.508;19.376;2022-08-19T15:18:20;34.00;51.60
39095;DHT22;24840;47.508;19.376;2022-08-19T15:20:47;33.60;52.60
39095;DHT22;24840;47.508;19.376;2022-08-19T15:23:15;33.10;52.70
39095;DHT22;24840;47.508;19.376;2022-08-19T15:25:41;32.80;53.30
39095;DHT22;24840;47.508;19.376;2022-08-19T15:28:08;32.70;53.40
39095;DHT22;24840;47.508;19.376;2022-08-19T15:30:37;32.50;53.80
39095;DHT22;24840;47.508;19.376;2022-08-19T15:33:03;32.40;54.00
39095;DHT22;24840;47.508;19.376;2022-08-19T15:35:30;32.00;54.70